Time;durP1;ratioP1;P1;durP2;ratioP2;P2;SDS_P1;SDS_P2;PMS_P1;PMS_P2;Temp;Humidity;BMP_temperature;BMP_pressure;BME280_temperature;BME280_humidity;BME280_pressure;Samples;Min_cycle;Max_cycle;Signal;HPM_P1;HPM_P2
2023/03/03 00:01:59;;;;;;;;;;;3.50;99.90;;;;;;5051257;28;2969;-67
2023/03/03 00:04:25;;;;;;;;;;;3.50;99.90;;;;;;5068929;28;3306;-67
2023/03/03 00:06:50;;;;;;;;;;;3.40;99.90;;;;;;5069686;28;1106;-67
2023/03/03 00:09:16;;;;;;;;;;;3.50;99.90;;;;;;5070110;28;1143;-67
2023/03/03 00:11:42;;;;;;;;;;;3.40;99.90;;;;;;5064064;28;1128;-67
2023/03/03 00:14:20;;;;;;;;;;;3.30;99.90;;;;;;5031637;28;982;-67
2023/03/03 00:16:48;;;;;;;;;;;3.30;99.90;;;;;;5050120;28;1657;-67
2023/03/03 00:19:16;;;;;;;;;;;3.30;99.90;;;;;;5032109;28;1160;-67
2023/03/03 00:21:43;;;;;;;;;;;3.20;99.90;;;;;;5061885;28;1906;-67
2023/03/03 00:24:11;;;;;;;;;;;3.20;99.90;;;;;;5049691;28;1105;-67
2023/03/03 00:26:38;;;;;;;;;;;3.20;99.90;;;;;;5049278;28;1153;-67
2023/03/03 00:29:34;;;;;;;;;;;3.30;99.90;;;;;;5038625;28;1105;-67
2023/03/03 00:32:06;;;;;;;;;;;3.30;99.90;;;;;;5043085;28;1125;-67
2023/03/03 00:34:32;;;;;;;;;;;3.30;99.90;;;;;;5060422;28;1279;-67
2023/03/03 00:36:58;;;;;;;;;;;3.30;99.90;;;;;;5023644;28;1291;-67
2023/03/03 00:39:28;;;;;;;;;;;3.30;99.90;;;;;;5041752;28;1717;-67
2023/03/03 00:41:54;;;;;;;;;;;3.40;99.90;;;;;;5057570;28;1969;-67
2023/03/03 00:44:20;;;;;;;;;;;3.30;99.90;;;;;;5056523;28;1242;-67
2023/03/03 00:46:46;;;;;;;;;;;3.30;99.90;;;;;;5063755;28;1156;-67
2023/03/03 00:49:18;;;;;;;;;;;3.30;99.90;;;;;;5031097;28;1335;-67
2023/03/03 00:51:44;;;;;;;;;;;3.40;99.90;;;;;;5049141;28;1140;-67
2023/03/03 00:54:10;;;;;;;;;;;3.60;99.90;;;;;;5049827;28;1109;-67
2023/03/03 00:56:36;;;;;;;;;;;3.40;99.90;;;;;;5050034;28;1158;-67
2023/03/03 00:59:01;;;;;;;;;;;3.50;99.90;;;;;;5049434;28;1128;-67
2023/03/03 01:01:28;;;;;;;;;;;3.40;99.90;;;;;;5030935;28;1918;-67
2023/03/03 01:03:53;;;;;;;;;;;3.40;99.90;;;;;;5035093;28;1121;-67
2023/03/03 01:06:19;;;;;;;;;;;3.30;99.90;;;;;;5040269;28;1302;-67
2023/03/03 01:08:45;;;;;;;;;;;3.30;99.90;;;;;;5057567;28;1223;-67
2023/03/03 01:11:15;;;;;;;;;;;3.20;99.90;;;;;;5035858;28;1275;-66
2023/03/03 01:13:41;;;;;;;;;;;3.20;99.90;;;;;;5050953;28;1166;-67
2023/03/03 01:16:09;;;;;;;;;;;3.20;99.90;;;;;;5030614;28;1419;-66
2023/03/03 01:18:35;;;;;;;;;;;3.20;99.90;;;;;;5049159;28;1104;-67
2023/03/03 01:21:01;;;;;;;;;;;3.10;99.90;;;;;;5031497;28;1965;-67
2023/03/03 01:23:26;;;;;;;;;;;3.00;99.90;;;;;;5057135;28;1167;-66
2023/03/03 01:25:52;;;;;;;;;;;3.00;99.90;;;;;;5049001;28;943;-67
2023/03/03 01:28:19;;;;;;;;;;;3.00;99.90;;;;;;5049279;28;1180;-67
2023/03/03 01:30:44;;;;;;;;;;;2.90;99.90;;;;;;5050373;28;1124;-67
2023/03/03 01:33:11;;;;;;;;;;;2.90;99.90;;;;;;5049134;28;1180;-66
2023/03/03 01:35:41;;;;;;;;;;;2.80;99.90;;;;;;5047865;28;1088;-67
2023/03/03 01:38:07;;;;;;;;;;;2.80;99.90;;;;;;5048199;28;1093;-67
2023/03/03 01:40:33;;;;;;;;;;;2.80;99.90;;;;;;5062248;28;1941;-67
2023/03/03 01:42:59;;;;;;;;;;;3.00;99.90;;;;;;5031220;28;1111;-67
2023/03/03 01:45:27;;;;;;;;;;;2.80;99.90;;;;;;5036604;28;1148;-67
2023/03/03 01:47:55;;;;;;;;;;;2.80;99.90;;;;;;5046072;28;1521;-67
2023/03/03 01:50:27;;;;;;;;;;;2.70;99.90;;;;;;5066059;28;1296;-67
2023/03/03 01:52:53;;;;;;;;;;;2.70;99.90;;;;;;5055043;28;1533;-67
2023/03/03 01:55:22;;;;;;;;;;;2.60;99.90;;;;;;5030769;28;1201;-67
2023/03/03 01:57:51;;;;;;;;;;;2.60;99.90;;;;;;5040466;28;1183;-66
2023/03/03 02:00:17;;;;;;;;;;;2.60;99.90;;;;;;5049154;28;1909;-67
2023/03/03 02:02:44;;;;;;;;;;;2.60;99.90;;;;;;5048311;28;3128;-67
2023/03/03 02:05:10;;;;;;;;;;;2.60;99.90;;;;;;5048690;28;2931;-67
2023/03/03 02:07:36;;;;;;;;;;;2.60;99.90;;;;;;5048324;28;1110;-66
2023/03/03 02:10:11;;;;;;;;;;;2.70;99.90;;;;;;5072697;28;1104;-66
2023/03/03 02:12:39;;;;;;;;;;;2.60;99.90;;;;;;5071623;28;1175;-66
2023/03/03 02:15:15;;;;;;;;;;;2.60;99.90;;;;;;5051380;28;1315;-67
2023/03/03 02:17:41;;;;;;;;;;;2.60;99.90;;;;;;5057168;28;1133;-66
2023/03/03 02:20:11;;;;;;;;;;;2.50;99.90;;;;;;5033978;28;1905;-67
2023/03/03 02:22:43;;;;;;;;;;;2.40;99.90;;;;;;5052222;28;1009;-67
2023/03/03 02:25:12;;;;;;;;;;;2.40;99.90;;;;;;5046627;28;1214;-66
2023/03/03 02:27:38;;;;;;;;;;;2.30;99.90;;;;;;5071693;28;1171;-66
2023/03/03 02:30:08;;;;;;;;;;;2.30;99.90;;;;;;5054008;28;1294;-67
2023/03/03 02:32:35;;;;;;;;;;;2.20;99.90;;;;;;5035950;28;1191;-67
2023/03/03 02:35:00;;;;;;;;;;;2.10;99.90;;;;;;5059402;28;1098;-66
2023/03/03 02:37:27;;;;;;;;;;;2.00;99.90;;;;;;5071971;28;1159;-67
2023/03/03 02:39:53;;;;;;;;;;;2.00;99.90;;;;;;5049226;28;1278;-66
2023/03/03 02:42:20;;;;;;;;;;;2.00;99.90;;;;;;5051337;28;1910;-66
2023/03/03 02:44:51;;;;;;;;;;;2.00;99.90;;;;;;5050561;28;1176;-66
2023/03/03 02:47:17;;;;;;;;;;;1.90;99.90;;;;;;5050884;28;1061;-66
2023/03/03 02:49:44;;;;;;;;;;;1.90;99.90;;;;;;5031005;28;1285;-66
2023/03/03 02:52:10;;;;;;;;;;;1.90;99.90;;;;;;5032404;28;1112;-66
2023/03/03 02:54:38;;;;;;;;;;;1.80;99.90;;;;;;5039544;28;1240;-67
2023/03/03 02:57:04;;;;;;;;;;;1.70;99.90;;;;;;5041280;28;1104;-67
2023/03/03 02:59:29;;;;;;;;;;;1.70;99.90;;;;;;5041191;28;1212;-67
2023/03/03 03:01:59;;;;;;;;;;;1.60;99.90;;;;;;5038393;28;1971;-66
2023/03/03 03:04:25;;;;;;;;;;;1.80;99.90;;;;;;5030558;28;1113;-66
2023/03/03 03:06:52;;;;;;;;;;;1.60;99.90;;;;;;5033312;28;1172;-66
2023/03/03 03:09:19;;;;;;;;;;;1.20;99.90;;;;;;5035298;28;1115;-66
2023/03/03 03:11:47;;;;;;;;;;;1.10;99.90;;;;;;5030590;28;1132;-66
2023/03/03 03:14:16;;;;;;;;;;;1.00;99.90;;;;;;5030295;28;1113;-66
2023/03/03 03:16:42;;;;;;;;;;;0.90;99.90;;;;;;5033138;28;1645;-66
2023/03/03 03:19:09;;;;;;;;;;;0.80;99.90;;;;;;5035361;28;1160;-66
2023/03/03 03:21:36;;;;;;;;;;;0.80;99.90;;;;;;5029845;28;1914;-66
2023/03/03 03:24:04;;;;;;;;;;;0.60;99.90;;;;;;5029531;28;1200;-66
2023/03/03 03:26:29;;;;;;;;;;;0.40;99.90;;;;;;5039565;28;1189;-66
2023/03/03 03:28:56;;;;;;;;;;;0.60;99.90;;;;;;5024110;28;1193;-67
2023/03/03 03:31:22;;;;;;;;;;;0.30;99.90;;;;;;5029739;28;1167;-66
2023/03/03 03:33:47;;;;;;;;;;;0.60;99.90;;;;;;5029999;28;1128;-66
2023/03/03 03:36:15;;;;;;;;;;;0.30;99.90;;;;;;5036875;28;1195;-67
2023/03/03 03:38:41;;;;;;;;;;;0.50;99.90;;;;;;5050517;28;1136;-66
2023/03/03 03:41:09;;;;;;;;;;;0.10;99.90;;;;;;5028192;28;1887;-66
2023/03/03 03:43:35;;;;;;;;;;;0.20;99.90;;;;;;5036781;28;1106;-67
2023/03/03 03:46:01;;;;;;;;;;;0.00;99.90;;;;;;5037877;28;1240;-66
2023/03/03 03:48:28;;;;;;;;;;;-0.20;99.90;;;;;;5023685;28;1236;-66
2023/03/03 03:50:54;;;;;;;;;;;-0.10;99.90;;;;;;5041323;28;1625;-66
2023/03/03 03:53:23;;;;;;;;;;;0.10;99.90;;;;;;5040320;28;1251;-66
2023/03/03 03:55:49;;;;;;;;;;;-0.10;99.90;;;;;;5061420;28;1183;-67
2023/03/03 03:58:16;;;;;;;;;;;-0.20;99.90;;;;;;5057658;28;1231;-67
2023/03/03 04:00:46;;;;;;;;;;;-0.10;99.90;;;;;;5044944;28;2008;-67
2023/03/03 04:03:13;;;;;;;;;;;-0.30;99.90;;;;;;5037244;28;1212;-67
2023/03/03 04:05:40;;;;;;;;;;;-0.40;99.90;;;;;;5049030;28;3058;-67
2023/03/03 04:08:08;;;;;;;;;;;-0.10;99.90;;;;;;5052261;28;1235;-66
2023/03/03 04:10:35;;;;;;;;;;;-0.60;99.90;;;;;;5042054;28;1217;-67
2023/03/03 04:13:04;;;;;;;;;;;-0.30;99.90;;;;;;5031665;28;1247;-67
2023/03/03 04:15:31;;;;;;;;;;;-0.60;99.90;;;;;;5040718;28;1356;-67
2023/03/03 04:17:58;;;;;;;;;;;-0.30;99.90;;;;;;5032279;28;1178;-67
2023/03/03 04:20:25;;;;;;;;;;;-0.60;99.90;;;;;;5042914;28;1918;-66
2023/03/03 04:22:52;;;;;;;;;;;-0.70;99.90;;;;;;5052350;28;1100;-66
2023/03/03 04:25:18;;;;;;;;;;;-0.70;99.90;;;;;;5051647;28;1195;-67
2023/03/03 04:27:45;;;;;;;;;;;-0.70;99.90;;;;;;5063784;28;1144;-66
2023/03/03 04:30:13;;;;;;;;;;;-0.50;99.90;;;;;;5032323;28;1130;-66
2023/03/03 04:32:39;;;;;;;;;;;-0.60;99.90;;;;;;5031781;28;1212;-66
2023/03/03 04:35:08;;;;;;;;;;;-0.80;99.90;;;;;;5048756;28;1105;-67
2023/03/03 04:37:36;;;;;;;;;;;-0.50;99.90;;;;;;5036659;28;1407;-66
2023/03/03 04:40:05;;;;;;;;;;;-0.30;99.90;;;;;;5050872;28;1914;-66
2023/03/03 04:42:31;;;;;;;;;;;-0.50;99.90;;;;;;5032838;28;1339;-67
2023/03/03 04:44:57;;;;;;;;;;;-0.60;99.90;;;;;;5033491;28;1125;-67
2023/03/03 04:47:23;;;;;;;;;;;-0.20;99.90;;;;;;5044899;28;1085;-66
2023/03/03 04:49:49;;;;;;;;;;;-0.60;99.90;;;;;;5059649;28;1092;-67
2023/03/03 04:52:15;;;;;;;;;;;-0.60;99.90;;;;;;5050405;28;1067;-67
2023/03/03 04:54:41;;;;;;;;;;;-0.80;99.90;;;;;;5040392;28;1129;-67
2023/03/03 04:57:08;;;;;;;;;;;-0.70;99.90;;;;;;5058588;28;1355;-67
2023/03/03 04:59:34;;;;;;;;;;;-0.50;99.90;;;;;;5031638;28;1028;-67
2023/03/03 05:02:03;;;;;;;;;;;-0.80;99.90;;;;;;5040463;28;1959;-67
2023/03/03 05:04:29;;;;;;;;;;;-0.90;99.90;;;;;;5033928;28;1194;-67
2023/03/03 05:06:56;;;;;;;;;;;-0.90;99.90;;;;;;5069472;28;1042;-67
2023/03/03 05:09:22;;;;;;;;;;;-0.80;99.90;;;;;;5068503;28;1155;-67
2023/03/03 05:11:47;;;;;;;;;;;-0.80;99.90;;;;;;5068293;28;1184;-66
2023/03/03 05:14:13;;;;;;;;;;;-0.80;99.90;;;;;;5056374;28;1163;-67
2023/03/03 05:16:39;;;;;;;;;;;-1.20;99.90;;;;;;5048682;28;1281;-67
2023/03/03 05:19:04;;;;;;;;;;;-0.90;99.90;;;;;;5049238;28;1172;-67
2023/03/03 05:21:30;;;;;;;;;;;-0.90;99.90;;;;;;5054500;28;1914;-67
2023/03/03 05:23:56;;;;;;;;;;;;;;;;;;5048875;28;1168;-67
2023/03/03 05:26:22;;;;;;;;;;;-1.10;99.90;;;;;;5057369;28;1148;-66
2023/03/03 05:28:47;;;;;;;;;;;-1.40;99.90;;;;;;5030432;28;1168;-66
2023/03/03 05:31:13;;;;;;;;;;;-0.90;99.90;;;;;;5049155;28;1095;-66
2023/03/03 05:33:39;;;;;;;;;;;-1.30;99.90;;;;;;5031119;28;1121;-66
2023/03/03 05:36:04;;;;;;;;;;;-1.30;99.90;;;;;;5048563;28;1104;-66
2023/03/03 05:38:30;;;;;;;;;;;-1.60;99.90;;;;;;5054736;28;1025;-66
2023/03/03 05:40:56;;;;;;;;;;;-1.60;99.90;;;;;;5061782;28;1902;-66
2023/03/03 05:43:21;;;;;;;;;;;-1.10;99.90;;;;;;5048401;28;1148;-66
2023/03/03 05:45:53;;;;;;;;;;;-1.80;99.90;;;;;;5048982;28;1089;-66
2023/03/03 05:48:18;;;;;;;;;;;-1.70;99.90;;;;;;5073344;28;1114;-66
2023/03/03 05:50:44;;;;;;;;;;;-1.60;99.90;;;;;;5015588;28;1554;-66
2023/03/03 05:53:10;;;;;;;;;;;-1.30;99.90;;;;;;5048902;28;1093;-66
2023/03/03 05:55:35;;;;;;;;;;;-1.80;99.90;;;;;;5063849;28;1113;-66
2023/03/03 05:58:01;;;;;;;;;;;-1.80;99.90;;;;;;5055394;28;1140;-67
2023/03/03 06:00:27;;;;;;;;;;;-1.30;99.90;;;;;;5048634;28;1910;-66
2023/03/03 06:02:52;;;;;;;;;;;-1.70;99.90;;;;;;5048656;28;1171;-66
2023/03/03 06:05:18;;;;;;;;;;;-1.40;99.90;;;;;;5054060;28;3089;-66
2023/03/03 06:07:44;;;;;;;;;;;-2.20;99.90;;;;;;5055697;28;1089;-66
2023/03/03 06:10:09;;;;;;;;;;;-2.20;99.90;;;;;;5047988;28;1158;-66
2023/03/03 06:12:40;;;;;;;;;;;-2.10;99.90;;;;;;5030173;28;1120;-66
2023/03/03 06:15:06;;;;;;;;;;;-2.20;99.90;;;;;;5059078;28;1312;-66
2023/03/03 06:17:31;;;;;;;;;;;-2.20;99.90;;;;;;5068473;28;1108;-66
2023/03/03 06:19:57;;;;;;;;;;;-2.20;99.90;;;;;;5067822;28;1049;-66
2023/03/03 06:22:23;;;;;;;;;;;-1.70;99.90;;;;;;5067673;28;1967;-66
2023/03/03 06:24:48;;;;;;;;;;;-2.30;99.90;;;;;;5061593;28;1183;-66
2023/03/03 06:27:14;;;;;;;;;;;-2.30;99.90;;;;;;5048652;28;1069;-66
2023/03/03 06:29:40;;;;;;;;;;;-2.20;99.90;;;;;;5048812;28;1088;-66
2023/03/03 06:32:05;;;;;;;;;;;-2.30;99.90;;;;;;5057551;28;1151;-66
2023/03/03 06:34:31;;;;;;;;;;;-2.30;99.90;;;;;;5049390;28;1143;-66
2023/03/03 06:36:57;;;;;;;;;;;-2.20;99.90;;;;;;5048601;28;1081;-66
2023/03/03 06:39:22;;;;;;;;;;;-2.20;99.90;;;;;;5053932;28;1345;-66
2023/03/03 06:41:48;;;;;;;;;;;-2.10;99.90;;;;;;5066799;28;1905;-66
2023/03/03 06:44:14;;;;;;;;;;;-2.10;99.90;;;;;;5068419;28;1202;-66
2023/03/03 06:46:40;;;;;;;;;;;-1.50;99.90;;;;;;5073741;28;1104;-66
2023/03/03 06:49:05;;;;;;;;;;;-1.90;99.90;;;;;;5048142;28;1034;-66
2023/03/03 06:51:33;;;;;;;;;;;-1.60;99.90;;;;;;5064104;28;1167;-66
2023/03/03 06:54:09;;;;;;;;;;;-1.80;99.90;;;;;;5071054;28;1159;-66
2023/03/03 06:56:35;;;;;;;;;;;-2.00;99.90;;;;;;5071713;28;1085;-66
2023/03/03 06:59:02;;;;;;;;;;;-1.90;99.90;;;;;;5071150;28;1158;-66
2023/03/03 07:01:32;;;;;;;;;;;-1.40;99.90;;;;;;5070963;28;1910;-66
2023/03/03 07:03:58;;;;;;;;;;;-1.80;99.90;;;;;;5071787;28;1231;-67
2023/03/03 07:06:25;;;;;;;;;;;-1.80;99.90;;;;;;5070800;28;1096;-66
2023/03/03 07:08:51;;;;;;;;;;;-1.80;99.90;;;;;;5061578;28;1219;-66
2023/03/03 07:11:19;;;;;;;;;;;-1.70;99.90;;;;;;5051508;28;1094;-66
2023/03/03 07:13:46;;;;;;;;;;;-1.70;99.90;;;;;;5052033;28;1161;-66
2023/03/03 07:16:13;;;;;;;;;;;-1.40;99.90;;;;;;5057068;28;1324;-66
2023/03/03 07:18:50;;;;;;;;;;;-1.40;99.90;;;;;;5051218;28;1131;-66
2023/03/03 07:21:18;;;;;;;;;;;-1.20;99.90;;;;;;5050369;28;1910;-66
2023/03/03 07:23:44;;;;;;;;;;;-1.10;99.90;;;;;;5055836;28;1112;-66
2023/03/03 07:26:11;;;;;;;;;;;-1.00;99.90;;;;;;5051502;28;1119;-66
2023/03/03 07:28:39;;;;;;;;;;;-0.90;99.90;;;;;;5050763;28;1108;-66
2023/03/03 07:31:16;;;;;;;;;;;-0.90;99.90;;;;;;5050975;28;1077;-66
2023/03/03 07:33:44;;;;;;;;;;;-1.00;99.90;;;;;;5057712;28;1180;-66
2023/03/03 07:36:30;;;;;;;;;;;-0.90;99.90;;;;;;5070527;28;1247;-66
2023/03/03 07:38:57;;;;;;;;;;;-0.90;99.90;;;;;;5070439;28;1190;-66
2023/03/03 07:41:23;;;;;;;;;;;-0.90;99.90;;;;;;5042652;28;1981;-66
2023/03/03 07:43:53;;;;;;;;;;;-0.60;99.90;;;;;;5050637;28;1119;-66
2023/03/03 07:46:26;;;;;;;;;;;-0.70;99.90;;;;;;5039520;28;1149;-66
2023/03/03 07:48:53;;;;;;;;;;;-0.80;99.90;;;;;;5019943;28;1308;-66
2023/03/03 07:51:21;;;;;;;;;;;-0.70;99.90;;;;;;5056299;28;1143;-66
2023/03/03 07:53:47;;;;;;;;;;;-0.70;99.90;;;;;;5051905;28;1073;-66
2023/03/03 07:56:18;;;;;;;;;;;-0.60;99.90;;;;;;5050557;28;1276;-66
2023/03/03 07:58:44;;;;;;;;;;;-0.50;99.90;;;;;;5049278;28;1155;-66
2023/03/03 08:01:29;;;;;;;;;;;-0.40;99.90;;;;;;5051441;28;1959;-66
2023/03/03 08:03:55;;;;;;;;;;;-0.30;99.90;;;;;;5040882;28;1113;-66
2023/03/03 08:06:25;;;;;;;;;;;-0.30;99.90;;;;;;5066798;28;2961;-66
2023/03/03 08:08:51;;;;;;;;;;;-0.20;99.90;;;;;;5069025;28;1036;-67
2023/03/03 08:11:16;;;;;;;;;;;-0.10;99.90;;;;;;5069385;28;1246;-67
2023/03/03 08:13:42;;;;;;;;;;;0.00;99.90;;;;;;5070417;28;1128;-66
2023/03/03 08:16:08;;;;;;;;;;;0.10;99.90;;;;;;5042251;28;1881;-66
2023/03/03 08:18:37;;;;;;;;;;;0.10;99.90;;;;;;5034282;28;1190;-66
2023/03/03 08:21:04;;;;;;;;;;;0.20;99.90;;;;;;5052217;28;1983;-66
2023/03/03 08:23:29;;;;;;;;;;;0.20;99.90;;;;;;5055374;28;1176;-66
2023/03/03 08:25:55;;;;;;;;;;;0.50;99.90;;;;;;5069256;28;1107;-67
2023/03/03 08:28:21;;;;;;;;;;;0.30;99.90;;;;;;5060237;28;1316;-66
2023/03/03 08:30:47;;;;;;;;;;;0.30;99.90;;;;;;5049642;28;1082;-66
2023/03/03 08:33:13;;;;;;;;;;;0.50;99.90;;;;;;5049106;28;1347;-66
2023/03/03 08:35:40;;;;;;;;;;;0.60;99.90;;;;;;5038948;28;1958;-66
2023/03/03 08:38:06;;;;;;;;;;;0.90;99.90;;;;;;5075589;28;1113;-66
2023/03/03 08:40:32;;;;;;;;;;;1.20;99.90;;;;;;5065867;28;1925;-66
2023/03/03 08:42:58;;;;;;;;;;;1.50;99.90;;;;;;5064164;28;1660;-66
2023/03/03 08:45:24;;;;;;;;;;;1.70;99.90;;;;;;5062790;28;1132;-66
2023/03/03 08:47:50;;;;;;;;;;;1.70;99.90;;;;;;5057847;28;1299;-66
2023/03/03 08:50:16;;;;;;;;;;;1.70;99.90;;;;;;5049338;28;1391;-66
2023/03/03 08:52:42;;;;;;;;;;;1.60;99.90;;;;;;5032701;28;1183;-67
2023/03/03 08:55:07;;;;;;;;;;;1.70;99.90;;;;;;5052890;28;1160;-66
2023/03/03 08:57:33;;;;;;;;;;;1.60;99.90;;;;;;5049779;28;1109;-66
2023/03/03 08:59:59;;;;;;;;;;;1.50;99.90;;;;;;5048614;28;1152;-67
2023/03/03 09:02:25;;;;;;;;;;;1.70;99.90;;;;;;5055014;28;3214;-66
2023/03/03 09:04:50;;;;;;;;;;;1.70;99.90;;;;;;5045831;28;3338;-66
2023/03/03 09:07:16;;;;;;;;;;;1.80;99.90;;;;;;5058869;28;1139;-66
2023/03/03 09:09:42;;;;;;;;;;;1.80;99.90;;;;;;5055733;28;3137;-66
2023/03/03 09:12:16;;;;;;;;;;;1.90;99.90;;;;;;5061119;28;1227;-66
2023/03/03 09:14:41;;;;;;;;;;;1.90;99.90;;;;;;5041038;28;1216;-66
2023/03/03 09:17:22;;;;;;;;;;;2.00;99.90;;;;;;5060583;28;1494;-66
2023/03/03 09:19:48;;;;;;;;;;;2.00;99.90;;;;;;5056733;28;1141;-66
2023/03/03 09:22:20;;;;;;;;;;;2.00;99.90;;;;;;5051682;28;3414;-66
2023/03/03 09:24:46;;;;;;;;;;;2.10;99.90;;;;;;5055114;28;1436;-66
2023/03/03 09:27:27;;;;;;;;;;;2.10;99.90;;;;;;5069202;28;1131;-66
2023/03/03 09:29:53;;;;;;;;;;;2.20;99.90;;;;;;5058424;28;1150;-66
2023/03/03 09:32:30;;;;;;;;;;;2.40;99.90;;;;;;5050730;28;1213;-66
2023/03/03 09:34:56;;;;;;;;;;;2.40;99.90;;;;;;5068438;28;966;-66
2023/03/03 09:37:22;;;;;;;;;;;2.50;99.90;;;;;;5065425;28;1175;-66
2023/03/03 09:39:49;;;;;;;;;;;2.60;99.90;;;;;;5068065;28;1399;-66
2023/03/03 09:42:19;;;;;;;;;;;2.70;99.90;;;;;;5053729;28;1910;-66
2023/03/03 09:44:48;;;;;;;;;;;2.70;99.90;;;;;;5048311;28;1167;-66
2023/03/03 09:47:36;;;;;;;;;;;2.80;99.90;;;;;;5059341;28;1077;-66
2023/03/03 09:50:01;;;;;;;;;;;3.10;99.90;;;;;;5050945;28;1193;-66
2023/03/03 09:52:45;;;;;;;;;;;3.20;99.90;;;;;;5053361;28;1200;-66
2023/03/03 09:55:10;;;;;;;;;;;3.40;99.90;;;;;;5054565;28;1156;-66
2023/03/03 09:57:37;;;;;;;;;;;;;;;;;;5050486;28;1093;-66
2023/03/03 10:00:19;;;;;;;;;;;3.90;99.90;;;;;;5068592;28;1100;-65
2023/03/03 10:02:53;;;;;;;;;;;3.90;99.90;;;;;;5063916;28;1290;-66
2023/03/03 10:05:19;;;;;;;;;;;4.10;99.90;;;;;;5056633;28;1200;-69
2023/03/03 10:07:51;;;;;;;;;;;4.30;99.90;;;;;;5056469;28;1208;-66
2023/03/03 10:10:17;;;;;;;;;;;4.50;99.90;;;;;;5057363;28;1243;-66
2023/03/03 10:12:43;;;;;;;;;;;;;;;;;;5059325;28;1263;-66
2023/03/03 10:15:18;;;;;;;;;;;4.90;99.90;;;;;;5057329;28;1296;-66
2023/03/03 10:17:48;;;;;;;;;;;5.20;99.90;;;;;;5025497;28;1124;-66
2023/03/03 10:20:14;;;;;;;;;;;5.50;99.90;;;;;;5067922;28;1076;-66
2023/03/03 10:23:07;;;;;;;;;;;5.70;99.90;;;;;;5063146;28;1985;-67
2023/03/03 10:25:41;;;;;;;;;;;5.90;99.90;;;;;;5049694;28;1094;-66
2023/03/03 10:28:09;;;;;;;;;;;6.10;99.90;;;;;;5041573;28;1243;-66
2023/03/03 10:30:35;;;;;;;;;;;6.30;99.90;;;;;;5059898;28;1203;-66
2023/03/03 10:33:07;;;;;;;;;;;6.40;99.90;;;;;;5060114;28;1240;-66
2023/03/03 10:35:42;;;;;;;;;;;6.60;99.90;;;;;;5052580;28;1085;-66
2023/03/03 10:38:15;;;;;;;;;;;6.70;99.90;;;;;;5041375;28;1228;-66
2023/03/03 10:40:42;;;;;;;;;;;6.80;99.90;;;;;;5061894;28;1922;-66
2023/03/03 10:43:09;;;;;;;;;;;6.90;99.90;;;;;;5061495;28;1274;-66
2023/03/03 10:45:43;;;;;;;;;;;6.90;99.90;;;;;;5051115;28;1144;-66
2023/03/03 10:48:24;;;;;;;;;;;7.20;99.90;;;;;;5069206;28;1110;-66
2023/03/03 10:50:59;;;;;;;;;;;8.60;99.90;;;;;;5070612;28;1597;-66
2023/03/03 10:53:28;;;;;;;;;;;10.90;99.90;;;;;;5071126;28;1156;-67
2023/03/03 10:56:14;;;;;;;;;;;12.10;99.90;;;;;;5071926;28;1120;-67
2023/03/03 10:58:59;;;;;;;;;;;13.70;99.90;;;;;;5051594;28;1134;-67
2023/03/03 11:01:39;;;;;;;;;;;13.90;99.90;;;;;;5051001;28;1998;-67
2023/03/03 11:04:14;;;;;;;;;;;12.80;95.90;;;;;;5051614;28;1120;-67
2023/03/03 11:06:53;;;;;;;;;;;11.40;99.90;;;;;;5057714;28;1136;-67
2023/03/03 11:09:27;;;;;;;;;;;10.30;99.90;;;;;;5060760;28;1144;-69
2023/03/03 11:11:59;;;;;;;;;;;9.50;99.90;;;;;;5051611;28;1105;-67
2023/03/03 11:14:30;;;;;;;;;;;8.70;99.90;;;;;;5051418;28;1104;-67
2023/03/03 11:17:02;;;;;;;;;;;8.20;99.90;;;;;;5067719;28;1604;-67
2023/03/03 11:19:29;;;;;;;;;;;7.90;99.90;;;;;;5054753;28;1148;-67
2023/03/03 11:22:20;;;;;;;;;;;7.70;99.90;;;;;;5050714;28;1938;-67
2023/03/03 11:24:47;;;;;;;;;;;7.70;99.90;;;;;;5059950;28;1146;-67
2023/03/03 11:27:14;;;;;;;;;;;7.70;99.90;;;;;;5051514;28;1210;-67
2023/03/03 11:29:46;;;;;;;;;;;7.70;99.90;;;;;;5050464;28;1081;-68
2023/03/03 11:32:22;;;;;;;;;;;7.70;99.90;;;;;;5053330;28;1093;-67
2023/03/03 11:34:55;;;;;;;;;;;7.70;99.90;;;;;;5050711;28;1124;-67
2023/03/03 11:37:26;;;;;;;;;;;7.70;99.90;;;;;;5032544;28;1180;-67
2023/03/03 11:39:54;;;;;;;;;;;7.60;99.90;;;;;;5062116;28;1169;-67
2023/03/03 11:42:25;;;;;;;;;;;7.50;99.90;;;;;;5043487;28;1989;-67
2023/03/03 11:44:55;;;;;;;;;;;7.60;99.90;;;;;;5069471;28;1040;-67
2023/03/03 11:47:25;;;;;;;;;;;7.60;99.90;;;;;;5070422;28;1203;-67
2023/03/03 11:49:55;;;;;;;;;;;7.60;99.90;;;;;;5047963;28;1217;-67
2023/03/03 11:52:39;;;;;;;;;;;7.60;99.90;;;;;;5058465;28;3041;-67
2023/03/03 11:55:10;;;;;;;;;;;7.50;99.90;;;;;;5050689;28;1176;-67
2023/03/03 11:57:40;;;;;;;;;;;7.40;99.90;;;;;;5049800;28;1101;-67
2023/03/03 12:00:08;;;;;;;;;;;7.50;99.90;;;;;;5060667;28;1188;-67
2023/03/03 12:02:38;;;;;;;;;;;8.40;99.90;;;;;;5049821;28;1906;-67
2023/03/03 12:05:10;;;;;;;;;;;10.00;99.90;;;;;;5050256;28;1144;-67
2023/03/03 12:07:39;;;;;;;;;;;11.30;97.60;;;;;;5053933;28;1203;-67
2023/03/03 12:10:09;;;;;;;;;;;11.00;95.80;;;;;;5049848;28;1081;-67
2023/03/03 12:12:38;;;;;;;;;;;10.10;98.40;;;;;;5050183;28;1120;-67
2023/03/03 12:15:07;;;;;;;;;;;9.30;98.90;;;;;;5052641;28;1327;-67
2023/03/03 12:17:40;;;;;;;;;;;9.10;99.90;;;;;;5067550;28;1180;-67
2023/03/03 12:20:06;;;;;;;;;;;9.10;99.90;;;;;;5049925;28;1238;-67
2023/03/03 12:22:33;;;;;;;;;;;9.00;99.90;;;;;;5032318;28;1910;-67
2023/03/03 12:25:18;;;;;;;;;;;8.80;99.90;;;;;;5050380;28;1155;-67
2023/03/03 12:27:49;;;;;;;;;;;8.60;99.90;;;;;;5050515;28;1159;-67
2023/03/03 12:30:19;;;;;;;;;;;8.60;99.90;;;;;;5050187;28;1119;-67
2023/03/03 12:33:04;;;;;;;;;;;9.10;99.90;;;;;;5047352;28;2254;-67
2023/03/03 12:35:37;;;;;;;;;;;9.10;99.90;;;;;;5064081;28;1958;-67
2023/03/03 12:38:19;;;;;;;;;;;10.00;99.90;;;;;;5057130;28;3152;-67
2023/03/03 12:40:51;;;;;;;;;;;10.10;99.40;;;;;;5046945;28;3146;-67
2023/03/03 12:43:22;;;;;;;;;;;9.40;99.50;;;;;;5054785;28;2806;-67
2023/03/03 12:45:59;;;;;;;;;;;8.90;99.90;;;;;;5048859;28;1098;-67
2023/03/03 12:48:30;;;;;;;;;;;8.80;99.90;;;;;;5048872;28;1085;-67
2023/03/03 12:51:06;;;;;;;;;;;9.20;99.90;;;;;;5058350;28;2006;-67
2023/03/03 12:53:41;;;;;;;;;;;10.10;99.90;;;;;;5061072;28;1170;-67
2023/03/03 12:56:09;;;;;;;;;;;11.00;97.50;;;;;;5056085;28;2916;-67
2023/03/03 12:58:35;;;;;;;;;;;10.60;98.20;;;;;;5048767;28;1068;-65
2023/03/03 13:01:02;;;;;;;;;;;10.00;99.60;;;;;;5053824;28;1914;-68
2023/03/03 13:03:34;;;;;;;;;;;9.70;99.80;;;;;;5069081;28;1116;-67
2023/03/03 13:06:05;;;;;;;;;;;9.40;99.90;;;;;;5065103;28;1863;-68
2023/03/03 13:08:41;;;;;;;;;;;9.20;99.90;;;;;;5049075;28;1164;-67
2023/03/03 13:11:21;;;;;;;;;;;9.00;99.90;;;;;;5052092;28;1198;-67
2023/03/03 13:13:52;;;;;;;;;;;8.90;99.90;;;;;;5051387;28;1124;-68
2023/03/03 13:16:23;;;;;;;;;;;8.80;99.90;;;;;;5061334;28;1129;-67
2023/03/03 13:18:49;;;;;;;;;;;8.60;99.90;;;;;;5056045;28;1357;-67
2023/03/03 13:21:19;;;;;;;;;;;8.30;99.90;;;;;;5051516;28;1910;-67
2023/03/03 13:24:13;;;;;;;;;;;8.10;99.90;;;;;;5063023;28;1122;-67
2023/03/03 13:26:42;;;;;;;;;;;8.10;99.90;;;;;;5068888;28;1151;-67
2023/03/03 13:29:14;;;;;;;;;;;8.10;99.90;;;;;;5052353;28;1130;-67
2023/03/03 13:31:45;;;;;;;;;;;8.20;99.90;;;;;;5048942;28;1101;-67
2023/03/03 13:34:17;;;;;;;;;;;8.70;99.90;;;;;;5048040;28;1040;-67
2023/03/03 13:36:51;;;;;;;;;;;9.30;99.90;;;;;;5057440;28;1183;-67
2023/03/03 13:39:19;;;;;;;;;;;9.20;99.90;;;;;;5055964;28;1148;-67
2023/03/03 13:41:48;;;;;;;;;;;9.10;99.90;;;;;;5054449;28;2026;-67
2023/03/03 13:44:21;;;;;;;;;;;8.90;99.90;;;;;;5048856;28;1113;-68
2023/03/03 13:47:01;;;;;;;;;;;8.70;99.90;;;;;;5065003;28;1202;-67
2023/03/03 13:49:28;;;;;;;;;;;8.40;99.90;;;;;;5047665;28;1411;-67
2023/03/03 13:52:00;;;;;;;;;;;8.20;99.90;;;;;;5049073;28;1101;-68
2023/03/03 13:54:35;;;;;;;;;;;8.10;99.90;;;;;;5030318;28;1117;-67
2023/03/03 13:57:01;;;;;;;;;;;8.10;99.90;;;;;;5047971;28;1141;-67
2023/03/03 13:59:38;;;;;;;;;;;8.00;99.90;;;;;;5058567;28;878;-67
2023/03/03 14:02:04;;;;;;;;;;;8.00;99.90;;;;;;5058714;28;1970;-67
2023/03/03 14:04:34;;;;;;;;;;;7.90;99.90;;;;;;5058832;28;1237;-68
2023/03/03 14:07:13;;;;;;;;;;;7.90;99.90;;;;;;5060046;28;1196;-67
2023/03/03 14:09:46;;;;;;;;;;;7.80;99.90;;;;;;5072143;28;1168;-67
2023/03/03 14:12:19;;;;;;;;;;;7.80;99.90;;;;;;5071974;28;1202;-67
2023/03/03 14:14:45;;;;;;;;;;;7.80;99.90;;;;;;5055195;28;1085;-67
2023/03/03 14:17:16;;;;;;;;;;;7.70;99.90;;;;;;5052360;28;1616;-67
2023/03/03 14:19:43;;;;;;;;;;;7.60;99.90;;;;;;5034409;28;1156;-67
2023/03/03 14:22:22;;;;;;;;;;;7.60;99.90;;;;;;5059529;28;1973;-67
2023/03/03 14:24:54;;;;;;;;;;;7.50;99.90;;;;;;5051692;28;1198;-67
2023/03/03 14:27:23;;;;;;;;;;;7.40;99.90;;;;;;5033983;28;1109;-67
2023/03/03 14:29:48;;;;;;;;;;;7.30;99.90;;;;;;5058906;28;1155;-67
2023/03/03 14:32:23;;;;;;;;;;;7.20;99.90;;;;;;5062921;28;1102;-67
2023/03/03 14:34:58;;;;;;;;;;;7.20;99.90;;;;;;5067435;28;1043;-67
2023/03/03 14:37:25;;;;;;;;;;;7.20;99.90;;;;;;5062727;28;1241;-67
2023/03/03 14:40:05;;;;;;;;;;;7.20;99.90;;;;;;5069973;28;1874;-67
2023/03/03 14:42:34;;;;;;;;;;;7.10;99.90;;;;;;5063622;28;1983;-67
2023/03/03 14:45:03;;;;;;;;;;;7.10;99.90;;;;;;5051683;28;1171;-67
2023/03/03 14:47:29;;;;;;;;;;;7.10;99.90;;;;;;5063307;28;1039;-67
2023/03/03 14:50:01;;;;;;;;;;;7.10;99.90;;;;;;5069548;28;1228;-67
2023/03/03 14:52:29;;;;;;;;;;;7.10;99.90;;;;;;5051535;28;1117;-68